Maryland AWOS List, Phone Numbers

USA |  
| Search AWOS

Rocky Mountain States: Montana | Wyoming | Colorado | New Mexico

Complete weather reports: Maryland

Legend: KFNL = METAR available Follow your local AWOS on AV Mobile = METAR available on AV Mobile
Station Maryland Location Frequency Phone
KAPGFAA ID APG, KAPG 220055Z 00000KT 7SM SKC M02/M13 A3055 Follow KAPG on AV Mobile Phillips Army Air Field / Aberdeen
K61WICAO ID K61W Annapolis Coast Guard Station
KNAKICAO ID KNAK, KNAK 240254Z AUTO 13006KT 10SM FEW024 OVC055 09/07 A2994 RMK AO2 RAE36 SLP142 P0000 60000 T00940072 58038 Follow KNAK on AV Mobile ANNAPOLIS US NAVAL ACADEMY
KLWXICAO ID KLWX Baltimore / DC Nexrad
KDMHICAO ID KDMH, KDMH 240254Z AUTO 09/06 A2996 RMK AO1 SLP144 T00890061 58037 Follow KDMH on AV Mobile BALTIMORE DOWNTOWN
KMTNFAA ID MTN, AWOS-3, KMTN 240321Z AUTO 00000KT 10SM SCT022 SCT045 SCT055 08/08 A2996 Follow KMTN on AV Mobile Baltimore / Martin 410-682-8848
KBWIFAA ID BWI, ASOS, KBWI 240254Z COR 05003KT 7SM -RA BKN019 BKN037 OVC050 08/07 A2994 Follow KBWI on AV Mobile BALTIMORE-WASHINGTON INTERNATIONAL 410-691-1278
4MDFAA ID 4MD, Belfort PIER 7
KCGEFAA ID CGE, AWOS-3, KCGE 240322Z AUTO 12007KT 10SM SCT032 OVC048 15/12 A2994 RMK AO1 Follow KCGE on AV Mobile CAMBRIDGE 120.675 410-228-7559
KADWFAA ID ADW, KADW 240258Z AUTO 10008KT 10SM FEW014 OVC037 10/10 A2993 RMK AO2 RAB0158E0208DZE0158 SLP143 P0000 60000 T01010098 57038 $ Follow KADW on AV Mobile Camp Springs / Andrews Air Force Base
W32FAA ID W32, Belfort WASHINGTON EXECUTIVE/HYDE FIELD
KCGSFAA ID CGS, AWOS-3, KCGS 240320Z AUTO 00000KT 10SM BKN016 BKN035 OVC041 10/10 A2992 RMK AO1 Follow KCGS on AV Mobile COLLEGE PARK 121.225 301-864-5497
K66WICAO ID K66W Cove Point Coast Guard Light Station
KCBEFAA ID CBE, AWOS-3, KCBE 240321Z AUTO 00000KT 10/08 A2983 Follow KCBE on AV Mobile Cumberland, Greater Cumberland Regional Airport 128.625 304-738-0451
KESNFAA ID ESN, AWOS-3, KESN 240335Z AUTO 15008KT 10SM SCT011 SCT025 OVC046 14/14 A2998 Follow KESN on AV Mobile Easton / Newman Field 124.475 410-822-2817
KFMEFAA ID FME, AWOS-3, KFME 240321Z AUTO 00000KT 7SM BKN017 OVC045 09/08 A2995 RMK AO1 Follow KFME on AV Mobile Fort Meade / Tipton 123.925
KJWXICAO ID KJWX Fort Ritchie
KFDKFAA ID FDK, AWOS-3, KFDK 240320Z AUTO 35003KT 3SM -RA OVC007 08/06 A2993 Follow KFDK on AV Mobile Frederick, Frederick Municipal Airport 124.875 301-600-1457
KGAIFAA ID GAI, AWOS-3, KGAI 240315Z 12009KT 3SM OVC004 09/08 A2994 RMK AO1 P0001 Follow KGAI on AV Mobile GAITHERSBURG 128.275 301-977-2971
KHGRFAA ID HGR, ASOS, KHGR 240305Z 16008KT 5SM -RA OVC014 11/08 A2988 RMK AO2 P0001 T01060078 Follow KHGR on AV Mobile HAGERSTOWN REGIONAL AIRPORT 126.375 301-745-3497
K2W6FAA ID 2W6, AWOS-3, K2W6 240322Z AUTO 12008KT 10SM SCT031 OVC041 14/12 A2992 RMK AO1 Follow K2W6 on AV Mobile LEONARDTOWN 119.575 301-373-6514
K2G4FAA ID 2G4, AWOS-3, K2G4 240320Z AUTO 13024G34KT 10SM BKN005 OVC009 08/ A2967 RMK AO1 Follow K2G4 on AV Mobile OAKLAND 120.125 301-746-8443
KW30ICAO ID KW30 Ocean City
KN80ICAO ID KN80 Ocean City, Ocean City Municipal Airport
KOXBFAA ID OXB, ASOS, KOXB 240253Z AUTO VRB05KT 10SM SCT033 OVC044 13/12 A3001 RMK AO2 SLP160 T01330122 58034 TSNO Follow KOXB on AV Mobile OCEAN CITY MUNICIPAL AIRPORT 119.025 410-213-1530
KNHKFAA ID NHK, KNHK 240252Z AUTO 15010KT 10SM OVC046 12/10 A2995 RMK AO2 SLP141 60000 T01170100 56039 Follow KNHK on AV Mobile NAS PATUXENT RIVER MD
KSBYFAA ID SBY, ASOS, KSBY 240254Z 10006KT 10SM BKN050 OVC090 15/13 A2998 Follow KSBY on AV Mobile SALISBURY-WICOMICO CTY REG 118.325 410-341-0868
KNUIFAA ID NUI, KNUI 240253Z AUTO 12006KT 10SM BKN039 OVC048 14/11 A2994 RMK AO2 SLP136 60001 T01440111 58040 Follow KNUI on AV Mobile KNUI WEBSTER FIELD ANNEX
KW29FAA ID W29, AWOS-3, KW29 240321Z AUTO 14009KT 10SM 12/11 A2994 RMK AO1 LTG DSNT S Follow KW29 on AV Mobile STEVENSVILLE 120.575 410-643-8795
K67WICAO ID K67W Stillpond Coast Guard Station
K65WICAO ID K65W Thomas Point Coast Guard Station
KDMWFAA ID DMW, AWOS-3, KDMW 240320Z AUTO 14009KT 3SM DZ BKN005 OVC010 08/07 A2991 RMK AO2 LTG DSNT S P0001 Follow KDMW on AV Mobile WESTMINSTER 121.25 410-876-1281

Click on the AV Mobile icon AV Mobile icon by any station to follow that AWOS feed on AirportView.net Mobile.

Garmin aera 796 $1999 at Avionics Specialists LLC
Bose A20 Aviation Headsets $995 at Avionics Specialists LLC